sensor_id;sensor_type;location;lat;lon;timestamp;P1;durP1;ratioP1;P2;durP2;ratioP2
68449;SDS011;67758;39.572;2.652;2023-09-30T00:02:07;9.30;;;3.50;;
68449;SDS011;67758;39.572;2.652;2023-09-30T00:04:33;10.90;;;3.47;;
68449;SDS011;67758;39.572;2.652;2023-09-30T00:06:58;8.20;;;3.50;;
68449;SDS011;67758;39.572;2.652;2023-09-30T00:09:26;6.68;;;2.95;;
68449;SDS011;67758;39.572;2.652;2023-09-30T00:11:52;9.13;;;3.10;;
68449;SDS011;67758;39.572;2.652;2023-09-30T00:14:20;11.10;;;3.70;;
68449;SDS011;67758;39.572;2.652;2023-09-30T00:16:45;7.43;;;3.00;;
68449;SDS011;67758;39.572;2.652;2023-09-30T00:19:11;9.27;;;3.33;;
68449;SDS011;67758;39.572;2.652;2023-09-30T00:21:37;8.50;;;3.23;;
68449;SDS011;67758;39.572;2.652;2023-09-30T00:24:03;7.75;;;3.47;;
68449;SDS011;67758;39.572;2.652;2023-09-30T00:26:28;7.25;;;2.83;;
68449;SDS011;67758;39.572;2.652;2023-09-30T00:28:54;9.80;;;3.05;;
68449;SDS011;67758;39.572;2.652;2023-09-30T00:31:20;8.80;;;3.40;;
68449;SDS011;67758;39.572;2.652;2023-09-30T00:33:45;14.52;;;3.50;;
68449;SDS011;67758;39.572;2.652;2023-09-30T00:36:11;7.53;;;3.10;;
68449;SDS011;67758;39.572;2.652;2023-09-30T00:38:37;8.23;;;3.15;;
68449;SDS011;67758;39.572;2.652;2023-09-30T00:41:03;9.50;;;3.40;;
68449;SDS011;67758;39.572;2.652;2023-09-30T00:43:29;7.32;;;3.72;;
68449;SDS011;67758;39.572;2.652;2023-09-30T00:46:40;8.88;;;3.90;;
68449;SDS011;67758;39.572;2.652;2023-09-30T00:48:43;9.93;;;3.55;;
68449;SDS011;67758;39.572;2.652;2023-09-30T00:51:10;11.18;;;3.65;;
68449;SDS011;67758;39.572;2.652;2023-09-30T00:53:36;10.50;;;3.88;;
68449;SDS011;67758;39.572;2.652;2023-09-30T00:56:02;8.88;;;3.40;;
68449;SDS011;67758;39.572;2.652;2023-09-30T00:58:31;6.27;;;3.43;;
68449;SDS011;67758;39.572;2.652;2023-09-30T01:00:58;8.88;;;3.17;;
68449;SDS011;67758;39.572;2.652;2023-09-30T01:03:24;8.77;;;3.47;;
68449;SDS011;67758;39.572;2.652;2023-09-30T01:05:50;8.23;;;3.10;;
68449;SDS011;67758;39.572;2.652;2023-09-30T01:08:16;10.43;;;3.10;;
68449;SDS011;67758;39.572;2.652;2023-09-30T01:10:45;7.72;;;3.67;;
68449;SDS011;67758;39.572;2.652;2023-09-30T01:13:11;7.38;;;3.15;;
68449;SDS011;67758;39.572;2.652;2023-09-30T01:15:36;8.90;;;3.50;;
68449;SDS011;67758;39.572;2.652;2023-09-30T01:18:02;8.63;;;3.42;;
68449;SDS011;67758;39.572;2.652;2023-09-30T01:20:29;7.55;;;3.40;;
68449;SDS011;67758;39.572;2.652;2023-09-30T01:22:55;8.45;;;3.45;;
68449;SDS011;67758;39.572;2.652;2023-09-30T01:25:22;9.77;;;2.85;;
68449;SDS011;67758;39.572;2.652;2023-09-30T01:27:48;10.15;;;3.63;;
68449;SDS011;67758;39.572;2.652;2023-09-30T01:30:16;7.60;;;3.40;;
68449;SDS011;67758;39.572;2.652;2023-09-30T01:32:43;7.10;;;3.27;;
68449;SDS011;67758;39.572;2.652;2023-09-30T01:35:09;7.10;;;3.33;;
68449;SDS011;67758;39.572;2.652;2023-09-30T01:37:35;7.38;;;3.25;;
68449;SDS011;67758;39.572;2.652;2023-09-30T01:40:01;7.97;;;2.90;;
68449;SDS011;67758;39.572;2.652;2023-09-30T01:42:29;7.45;;;3.10;;
68449;SDS011;67758;39.572;2.652;2023-09-30T01:44:54;7.82;;;3.30;;
68449;SDS011;67758;39.572;2.652;2023-09-30T01:47:21;8.70;;;2.97;;
68449;SDS011;67758;39.572;2.652;2023-09-30T01:49:47;9.23;;;2.77;;
68449;SDS011;67758;39.572;2.652;2023-09-30T01:52:13;8.53;;;3.00;;
68449;SDS011;67758;39.572;2.652;2023-09-30T01:54:38;7.50;;;3.08;;
68449;SDS011;67758;39.572;2.652;2023-09-30T01:57:04;10.63;;;3.27;;
68449;SDS011;67758;39.572;2.652;2023-09-30T01:59:30;9.70;;;3.30;;
68449;SDS011;67758;39.572;2.652;2023-09-30T02:01:55;6.83;;;2.77;;
68449;SDS011;67758;39.572;2.652;2023-09-30T02:04:21;10.48;;;2.83;;
68449;SDS011;67758;39.572;2.652;2023-09-30T02:06:46;7.18;;;2.78;;
68449;SDS011;67758;39.572;2.652;2023-09-30T02:09:12;9.90;;;3.40;;
68449;SDS011;67758;39.572;2.652;2023-09-30T02:11:38;7.30;;;3.23;;
68449;SDS011;67758;39.572;2.652;2023-09-30T02:14:06;6.88;;;2.70;;
68449;SDS011;67758;39.572;2.652;2023-09-30T02:16:31;6.20;;;2.20;;
68449;SDS011;67758;39.572;2.652;2023-09-30T02:18:57;7.23;;;2.57;;
68449;SDS011;67758;39.572;2.652;2023-09-30T02:21:23;9.82;;;3.30;;
68449;SDS011;67758;39.572;2.652;2023-09-30T02:23:49;8.10;;;2.60;;
68449;SDS011;67758;39.572;2.652;2023-09-30T02:26:20;7.05;;;2.72;;
68449;SDS011;67758;39.572;2.652;2023-09-30T02:28:46;9.43;;;3.03;;
68449;SDS011;67758;39.572;2.652;2023-09-30T02:31:12;7.13;;;2.53;;
68449;SDS011;67758;39.572;2.652;2023-09-30T02:33:38;7.22;;;2.60;;
68449;SDS011;67758;39.572;2.652;2023-09-30T02:36:09;7.15;;;2.47;;
68449;SDS011;67758;39.572;2.652;2023-09-30T02:38:35;7.67;;;2.90;;
68449;SDS011;67758;39.572;2.652;2023-09-30T02:41:03;7.15;;;2.50;;
68449;SDS011;67758;39.572;2.652;2023-09-30T02:43:30;7.22;;;2.47;;
68449;SDS011;67758;39.572;2.652;2023-09-30T02:45:56;9.40;;;2.30;;
68449;SDS011;67758;39.572;2.652;2023-09-30T02:48:21;6.25;;;2.38;;
68449;SDS011;67758;39.572;2.652;2023-09-30T02:50:47;7.80;;;2.60;;
68449;SDS011;67758;39.572;2.652;2023-09-30T02:53:13;8.27;;;2.50;;
68449;SDS011;67758;39.572;2.652;2023-09-30T02:55:39;5.87;;;2.40;;
68449;SDS011;67758;39.572;2.652;2023-09-30T02:58:05;7.75;;;2.90;;
68449;SDS011;67758;39.572;2.652;2023-09-30T03:00:33;6.35;;;2.20;;
68449;SDS011;67758;39.572;2.652;2023-09-30T03:03:00;6.82;;;2.35;;
68449;SDS011;67758;39.572;2.652;2023-09-30T03:05:32;7.65;;;2.67;;
68449;SDS011;67758;39.572;2.652;2023-09-30T03:07:59;6.60;;;2.88;;
68449;SDS011;67758;39.572;2.652;2023-09-30T03:10:26;6.07;;;2.30;;
68449;SDS011;67758;39.572;2.652;2023-09-30T03:12:52;7.25;;;2.25;;
68449;SDS011;67758;39.572;2.652;2023-09-30T03:15:19;7.72;;;2.40;;
68449;SDS011;67758;39.572;2.652;2023-09-30T03:17:45;6.10;;;2.42;;
68449;SDS011;67758;39.572;2.652;2023-09-30T03:20:11;9.30;;;2.97;;
68449;SDS011;67758;39.572;2.652;2023-09-30T03:22:40;6.28;;;2.50;;
68449;SDS011;67758;39.572;2.652;2023-09-30T03:25:12;7.53;;;2.40;;
68449;SDS011;67758;39.572;2.652;2023-09-30T03:27:40;6.28;;;2.47;;
68449;SDS011;67758;39.572;2.652;2023-09-30T03:30:06;8.38;;;2.90;;
68449;SDS011;67758;39.572;2.652;2023-09-30T03:32:33;6.57;;;2.60;;
68449;SDS011;67758;39.572;2.652;2023-09-30T03:35:06;5.72;;;2.30;;
68449;SDS011;67758;39.572;2.652;2023-09-30T03:37:35;7.65;;;2.85;;
68449;SDS011;67758;39.572;2.652;2023-09-30T03:40:04;6.60;;;2.63;;
68449;SDS011;67758;39.572;2.652;2023-09-30T03:42:38;5.85;;;2.50;;
68449;SDS011;67758;39.572;2.652;2023-09-30T03:45:05;6.93;;;2.50;;
68449;SDS011;67758;39.572;2.652;2023-09-30T03:47:37;6.40;;;2.50;;
68449;SDS011;67758;39.572;2.652;2023-09-30T03:50:04;6.32;;;2.75;;
68449;SDS011;67758;39.572;2.652;2023-09-30T03:52:30;7.15;;;2.28;;
68449;SDS011;67758;39.572;2.652;2023-09-30T03:55:02;6.85;;;2.90;;
68449;SDS011;67758;39.572;2.652;2023-09-30T03:57:33;8.10;;;2.78;;
68449;SDS011;67758;39.572;2.652;2023-09-30T03:59:59;9.20;;;3.05;;
68449;SDS011;67758;39.572;2.652;2023-09-30T04:02:26;8.27;;;2.80;;
68449;SDS011;67758;39.572;2.652;2023-09-30T04:04:52;8.25;;;2.85;;
68449;SDS011;67758;39.572;2.652;2023-09-30T04:07:20;5.55;;;2.45;;
68449;SDS011;67758;39.572;2.652;2023-09-30T04:09:46;6.97;;;2.85;;
68449;SDS011;67758;39.572;2.652;2023-09-30T04:12:12;8.87;;;2.87;;
68449;SDS011;67758;39.572;2.652;2023-09-30T04:14:38;7.72;;;2.67;;
68449;SDS011;67758;39.572;2.652;2023-09-30T04:17:04;8.50;;;2.97;;
68449;SDS011;67758;39.572;2.652;2023-09-30T04:19:30;7.68;;;2.90;;
68449;SDS011;67758;39.572;2.652;2023-09-30T04:21:55;7.50;;;2.83;;
68449;SDS011;67758;39.572;2.652;2023-09-30T04:24:21;8.57;;;3.05;;
68449;SDS011;67758;39.572;2.652;2023-09-30T04:26:49;6.72;;;2.83;;
68449;SDS011;67758;39.572;2.652;2023-09-30T04:29:17;9.77;;;3.42;;
68449;SDS011;67758;39.572;2.652;2023-09-30T04:31:43;8.10;;;2.53;;
68449;SDS011;67758;39.572;2.652;2023-09-30T04:34:09;9.68;;;2.75;;
68449;SDS011;67758;39.572;2.652;2023-09-30T04:36:34;7.83;;;3.10;;
68449;SDS011;67758;39.572;2.652;2023-09-30T04:39:00;7.80;;;3.10;;
68449;SDS011;67758;39.572;2.652;2023-09-30T04:41:26;7.73;;;2.83;;
68449;SDS011;67758;39.572;2.652;2023-09-30T04:43:52;6.93;;;2.53;;
68449;SDS011;67758;39.572;2.652;2023-09-30T04:46:18;6.97;;;2.90;;
68449;SDS011;67758;39.572;2.652;2023-09-30T04:48:45;8.05;;;2.47;;
68449;SDS011;67758;39.572;2.652;2023-09-30T04:51:13;9.07;;;2.78;;
68449;SDS011;67758;39.572;2.652;2023-09-30T04:53:38;7.50;;;2.77;;
68449;SDS011;67758;39.572;2.652;2023-09-30T04:56:04;7.47;;;2.33;;
68449;SDS011;67758;39.572;2.652;2023-09-30T04:58:30;9.53;;;2.43;;
68449;SDS011;67758;39.572;2.652;2023-09-30T05:00:56;10.02;;;2.22;;
68449;SDS011;67758;39.572;2.652;2023-09-30T05:03:22;8.43;;;2.67;;
68449;SDS011;67758;39.572;2.652;2023-09-30T05:05:49;5.88;;;1.92;;
68449;SDS011;67758;39.572;2.652;2023-09-30T05:08:18;8.23;;;2.35;;
68449;SDS011;67758;39.572;2.652;2023-09-30T05:10:44;9.27;;;2.17;;
68449;SDS011;67758;39.572;2.652;2023-09-30T05:13:11;6.80;;;2.28;;
68449;SDS011;67758;39.572;2.652;2023-09-30T05:15:37;8.80;;;1.90;;
68449;SDS011;67758;39.572;2.652;2023-09-30T05:18:03;7.55;;;1.92;;
68449;SDS011;67758;39.572;2.652;2023-09-30T05:20:30;5.90;;;1.92;;
68449;SDS011;67758;39.572;2.652;2023-09-30T05:22:55;8.38;;;2.08;;
68449;SDS011;67758;39.572;2.652;2023-09-30T05:25:21;8.80;;;2.27;;
68449;SDS011;67758;39.572;2.652;2023-09-30T05:27:51;7.93;;;2.42;;
68449;SDS011;67758;39.572;2.652;2023-09-30T05:30:17;7.53;;;2.43;;
68449;SDS011;67758;39.572;2.652;2023-09-30T05:32:45;8.65;;;2.20;;
68449;SDS011;67758;39.572;2.652;2023-09-30T05:35:11;9.30;;;2.20;;
68449;SDS011;67758;39.572;2.652;2023-09-30T05:37:41;8.02;;;2.33;;
68449;SDS011;67758;39.572;2.652;2023-09-30T05:40:07;7.03;;;2.50;;
68449;SDS011;67758;39.572;2.652;2023-09-30T05:42:54;6.30;;;2.60;;
68449;SDS011;67758;39.572;2.652;2023-09-30T05:45:23;6.68;;;2.25;;
68449;SDS011;67758;39.572;2.652;2023-09-30T05:47:49;6.57;;;2.25;;
68449;SDS011;67758;39.572;2.652;2023-09-30T05:50:17;7.00;;;2.70;;
68449;SDS011;67758;39.572;2.652;2023-09-30T05:52:49;9.48;;;2.85;;
68449;SDS011;67758;39.572;2.652;2023-09-30T05:55:16;5.90;;;2.33;;
68449;SDS011;67758;39.572;2.652;2023-09-30T05:57:45;7.60;;;2.88;;
68449;SDS011;67758;39.572;2.652;2023-09-30T06:00:11;7.40;;;2.65;;
68449;SDS011;67758;39.572;2.652;2023-09-30T06:02:48;9.95;;;3.38;;
68449;SDS011;67758;39.572;2.652;2023-09-30T06:05:17;8.87;;;3.10;;
68449;SDS011;67758;39.572;2.652;2023-09-30T06:07:46;7.78;;;2.75;;
68449;SDS011;67758;39.572;2.652;2023-09-30T06:10:12;10.10;;;2.90;;
68449;SDS011;67758;39.572;2.652;2023-09-30T06:12:43;8.02;;;2.95;;
68449;SDS011;67758;39.572;2.652;2023-09-30T06:15:09;10.07;;;3.33;;
68449;SDS011;67758;39.572;2.652;2023-09-30T06:17:35;10.63;;;3.50;;
68449;SDS011;67758;39.572;2.652;2023-09-30T06:20:03;8.95;;;3.10;;
68449;SDS011;67758;39.572;2.652;2023-09-30T06:22:32;11.05;;;2.88;;
68449;SDS011;67758;39.572;2.652;2023-09-30T06:24:58;10.07;;;3.37;;
68449;SDS011;67758;39.572;2.652;2023-09-30T06:27:23;9.20;;;3.42;;
68449;SDS011;67758;39.572;2.652;2023-09-30T06:29:49;13.73;;;4.40;;
68449;SDS011;67758;39.572;2.652;2023-09-30T06:32:15;18.07;;;4.07;;
68449;SDS011;67758;39.572;2.652;2023-09-30T06:34:40;10.95;;;3.47;;
68449;SDS011;67758;39.572;2.652;2023-09-30T06:37:06;10.43;;;3.50;;
68449;SDS011;67758;39.572;2.652;2023-09-30T06:39:32;10.68;;;3.35;;
68449;SDS011;67758;39.572;2.652;2023-09-30T06:41:57;8.63;;;3.40;;
68449;SDS011;67758;39.572;2.652;2023-09-30T06:44:23;9.82;;;3.05;;
68449;SDS011;67758;39.572;2.652;2023-09-30T06:46:50;13.73;;;3.30;;
68449;SDS011;67758;39.572;2.652;2023-09-30T06:49:16;8.52;;;3.00;;
68449;SDS011;67758;39.572;2.652;2023-09-30T06:51:41;13.13;;;3.70;;
68449;SDS011;67758;39.572;2.652;2023-09-30T06:54:07;10.02;;;3.22;;
68449;SDS011;67758;39.572;2.652;2023-09-30T06:56:33;13.17;;;4.20;;
68449;SDS011;67758;39.572;2.652;2023-09-30T06:58:59;11.77;;;3.27;;
68449;SDS011;67758;39.572;2.652;2023-09-30T07:01:24;10.55;;;3.40;;
68449;SDS011;67758;39.572;2.652;2023-09-30T07:03:50;10.93;;;3.03;;
68449;SDS011;67758;39.572;2.652;2023-09-30T07:06:25;9.60;;;3.40;;
68449;SDS011;67758;39.572;2.652;2023-09-30T07:08:52;11.68;;;3.38;;
68449;SDS011;67758;39.572;2.652;2023-09-30T07:11:26;13.60;;;3.20;;
68449;SDS011;67758;39.572;2.652;2023-09-30T07:13:53;9.32;;;3.10;;
68449;SDS011;67758;39.572;2.652;2023-09-30T07:16:18;10.57;;;3.17;;
68449;SDS011;67758;39.572;2.652;2023-09-30T07:18:44;11.23;;;3.33;;
68449;SDS011;67758;39.572;2.652;2023-09-30T07:21:10;12.23;;;3.05;;
68449;SDS011;67758;39.572;2.652;2023-09-30T07:23:36;10.07;;;3.00;;
68449;SDS011;67758;39.572;2.652;2023-09-30T07:26:02;7.83;;;2.60;;
68449;SDS011;67758;39.572;2.652;2023-09-30T07:28:28;12.60;;;2.95;;
68449;SDS011;67758;39.572;2.652;2023-09-30T07:30:54;10.75;;;3.40;;
68449;SDS011;67758;39.572;2.652;2023-09-30T07:33:20;10.85;;;2.88;;
68449;SDS011;67758;39.572;2.652;2023-09-30T07:35:47;8.55;;;2.90;;
68449;SDS011;67758;39.572;2.652;2023-09-30T07:38:12;9.65;;;3.22;;
68449;SDS011;67758;39.572;2.652;2023-09-30T07:40:38;8.23;;;2.50;;
68449;SDS011;67758;39.572;2.652;2023-09-30T07:43:04;10.60;;;2.60;;
68449;SDS011;67758;39.572;2.652;2023-09-30T07:45:32;10.93;;;3.20;;
68449;SDS011;67758;39.572;2.652;2023-09-30T07:48:00;8.65;;;2.95;;
68449;SDS011;67758;39.572;2.652;2023-09-30T07:50:29;8.43;;;2.40;;
68449;SDS011;67758;39.572;2.652;2023-09-30T07:52:55;7.90;;;2.67;;
68449;SDS011;67758;39.572;2.652;2023-09-30T07:55:20;11.17;;;3.07;;
68449;SDS011;67758;39.572;2.652;2023-09-30T07:57:49;9.15;;;3.50;;
68449;SDS011;67758;39.572;2.652;2023-09-30T08:00:14;8.30;;;3.00;;
68449;SDS011;67758;39.572;2.652;2023-09-30T08:02:42;9.68;;;3.97;;
68449;SDS011;67758;39.572;2.652;2023-09-30T08:05:08;8.50;;;3.15;;
68449;SDS011;67758;39.572;2.652;2023-09-30T08:07:34;9.55;;;3.00;;
68449;SDS011;67758;39.572;2.652;2023-09-30T08:10:01;9.13;;;2.60;;
68449;SDS011;67758;39.572;2.652;2023-09-30T08:12:30;8.80;;;3.00;;
68449;SDS011;67758;39.572;2.652;2023-09-30T08:14:55;10.73;;;3.80;;
68449;SDS011;67758;39.572;2.652;2023-09-30T08:17:21;12.00;;;3.20;;
68449;SDS011;67758;39.572;2.652;2023-09-30T08:19:47;8.00;;;2.93;;
68449;SDS011;67758;39.572;2.652;2023-09-30T08:22:13;12.20;;;3.65;;
68449;SDS011;67758;39.572;2.652;2023-09-30T08:24:39;9.23;;;3.10;;
68449;SDS011;67758;39.572;2.652;2023-09-30T08:27:05;8.47;;;2.40;;
68449;SDS011;67758;39.572;2.652;2023-09-30T08:29:34;9.13;;;2.38;;
68449;SDS011;67758;39.572;2.652;2023-09-30T08:32:03;8.50;;;2.83;;
68449;SDS011;67758;39.572;2.652;2023-09-30T08:34:29;7.53;;;2.80;;
68449;SDS011;67758;39.572;2.652;2023-09-30T08:36:55;8.70;;;3.00;;
68449;SDS011;67758;39.572;2.652;2023-09-30T08:39:22;8.10;;;2.97;;
68449;SDS011;67758;39.572;2.652;2023-09-30T08:41:48;9.73;;;3.35;;
68449;SDS011;67758;39.572;2.652;2023-09-30T08:44:15;8.98;;;3.42;;
68449;SDS011;67758;39.572;2.652;2023-09-30T08:46:41;7.82;;;3.10;;
68449;SDS011;67758;39.572;2.652;2023-09-30T08:49:07;7.83;;;3.20;;
68449;SDS011;67758;39.572;2.652;2023-09-30T08:51:33;9.77;;;2.97;;
68449;SDS011;67758;39.572;2.652;2023-09-30T08:54:01;8.55;;;3.30;;
68449;SDS011;67758;39.572;2.652;2023-09-30T08:56:30;8.07;;;3.00;;
68449;SDS011;67758;39.572;2.652;2023-09-30T08:59:00;10.10;;;3.67;;
68449;SDS011;67758;39.572;2.652;2023-09-30T09:01:28;11.55;;;3.22;;
68449;SDS011;67758;39.572;2.652;2023-09-30T09:03:54;6.90;;;2.75;;
68449;SDS011;67758;39.572;2.652;2023-09-30T09:06:24;17.48;;;3.28;;
68449;SDS011;67758;39.572;2.652;2023-09-30T09:08:51;9.43;;;3.22;;
68449;SDS011;67758;39.572;2.652;2023-09-30T09:11:17;7.30;;;2.13;;
68449;SDS011;67758;39.572;2.652;2023-09-30T09:13:52;8.57;;;2.60;;
68449;SDS011;67758;39.572;2.652;2023-09-30T09:16:21;8.77;;;3.03;;
68449;SDS011;67758;39.572;2.652;2023-09-30T09:18:50;7.38;;;2.50;;
68449;SDS011;67758;39.572;2.652;2023-09-30T09:21:20;10.67;;;2.53;;
68449;SDS011;67758;39.572;2.652;2023-09-30T09:23:48;8.98;;;2.53;;
68449;SDS011;67758;39.572;2.652;2023-09-30T09:28:43;6.97;;;2.13;;
68449;SDS011;67758;39.572;2.652;2023-09-30T09:31:21;7.00;;;2.10;;
68449;SDS011;67758;39.572;2.652;2023-09-30T09:33:51;5.70;;;2.00;;
68449;SDS011;67758;39.572;2.652;2023-09-30T09:36:18;7.30;;;2.40;;
68449;SDS011;67758;39.572;2.652;2023-09-30T09:38:47;8.40;;;2.10;;
68449;SDS011;67758;39.572;2.652;2023-09-30T09:41:22;8.00;;;2.22;;
68449;SDS011;67758;39.572;2.652;2023-09-30T09:43:49;7.30;;;2.42;;
68449;SDS011;67758;39.572;2.652;2023-09-30T09:46:16;5.53;;;2.20;;
68449;SDS011;67758;39.572;2.652;2023-09-30T09:48:42;6.55;;;2.20;;
68449;SDS011;67758;39.572;2.652;2023-09-30T09:51:11;6.90;;;2.40;;
68449;SDS011;67758;39.572;2.652;2023-09-30T09:53:38;6.43;;;2.67;;
68449;SDS011;67758;39.572;2.652;2023-09-30T09:56:07;6.15;;;3.08;;
68449;SDS011;67758;39.572;2.652;2023-09-30T09:58:35;5.20;;;2.10;;
68449;SDS011;67758;39.572;2.652;2023-09-30T10:01:05;6.88;;;2.53;;
68449;SDS011;67758;39.572;2.652;2023-09-30T10:03:31;6.90;;;1.97;;
68449;SDS011;67758;39.572;2.652;2023-09-30T10:05:58;7.50;;;2.45;;
68449;SDS011;67758;39.572;2.652;2023-09-30T10:08:30;7.57;;;2.30;;
68449;SDS011;67758;39.572;2.652;2023-09-30T10:10:59;8.43;;;2.38;;
68449;SDS011;67758;39.572;2.652;2023-09-30T10:19:17;8.75;;;3.90;;
68449;SDS011;67758;39.572;2.652;2023-09-30T10:24:56;11.18;;;3.60;;
68449;SDS011;67758;39.572;2.652;2023-09-30T10:33:35;11.52;;;4.03;;
68449;SDS011;67758;39.572;2.652;2023-09-30T10:40:48;8.90;;;4.25;;
68449;SDS011;67758;39.572;2.652;2023-09-30T10:45:59;8.85;;;5.30;;
68449;SDS011;67758;39.572;2.652;2023-09-30T10:50:55;8.80;;;5.53;;
68449;SDS011;67758;39.572;2.652;2023-09-30T10:53:24;10.75;;;5.22;;
68449;SDS011;67758;39.572;2.652;2023-09-30T10:55:57;7.82;;;5.43;;
68449;SDS011;67758;39.572;2.652;2023-09-30T10:59:06;7.65;;;4.70;;
68449;SDS011;67758;39.572;2.652;2023-09-30T11:01:23;7.40;;;4.80;;
68449;SDS011;67758;39.572;2.652;2023-09-30T11:03:53;6.28;;;4.72;;
68449;SDS011;67758;39.572;2.652;2023-09-30T11:06:24;7.55;;;4.53;;
68449;SDS011;67758;39.572;2.652;2023-09-30T11:08:53;9.75;;;6.20;;
68449;SDS011;67758;39.572;2.652;2023-09-30T11:11:33;9.52;;;5.32;;
68449;SDS011;67758;39.572;2.652;2023-09-30T11:14:17;6.70;;;4.77;;
68449;SDS011;67758;39.572;2.652;2023-09-30T11:16:45;7.97;;;5.18;;
68449;SDS011;67758;39.572;2.652;2023-09-30T11:19:12;7.22;;;5.07;;
68449;SDS011;67758;39.572;2.652;2023-09-30T11:21:41;7.93;;;5.70;;
68449;SDS011;67758;39.572;2.652;2023-09-30T11:24:09;8.60;;;5.22;;
68449;SDS011;67758;39.572;2.652;2023-09-30T11:26:35;9.73;;;6.13;;
68449;SDS011;67758;39.572;2.652;2023-09-30T11:29:07;10.10;;;6.20;;
68449;SDS011;67758;39.572;2.652;2023-09-30T11:31:36;9.50;;;5.93;;
68449;SDS011;67758;39.572;2.652;2023-09-30T11:34:03;14.00;;;5.78;;
68449;SDS011;67758;39.572;2.652;2023-09-30T11:36:32;8.27;;;5.45;;
68449;SDS011;67758;39.572;2.652;2023-09-30T11:38:59;8.93;;;6.53;;
68449;SDS011;67758;39.572;2.652;2023-09-30T11:41:34;8.55;;;5.80;;
68449;SDS011;67758;39.572;2.652;2023-09-30T11:44:09;10.40;;;6.80;;
68449;SDS011;67758;39.572;2.652;2023-09-30T11:49:39;10.63;;;5.80;;
68449;SDS011;67758;39.572;2.652;2023-09-30T11:52:09;9.00;;;5.57;;
68449;SDS011;67758;39.572;2.652;2023-09-30T11:54:36;8.52;;;5.97;;
68449;SDS011;67758;39.572;2.652;2023-09-30T11:57:12;10.13;;;6.82;;
68449;SDS011;67758;39.572;2.652;2023-09-30T11:59:46;7.75;;;5.13;;
68449;SDS011;67758;39.572;2.652;2023-09-30T12:02:13;9.30;;;6.00;;
68449;SDS011;67758;39.572;2.652;2023-09-30T12:04:40;8.23;;;4.67;;
68449;SDS011;67758;39.572;2.652;2023-09-30T12:07:07;6.80;;;5.03;;
68449;SDS011;67758;39.572;2.652;2023-09-30T12:09:33;6.22;;;5.22;;
68449;SDS011;67758;39.572;2.652;2023-09-30T12:12:02;7.57;;;4.60;;
68449;SDS011;67758;39.572;2.652;2023-09-30T12:14:28;8.52;;;5.40;;
68449;SDS011;67758;39.572;2.652;2023-09-30T12:16:55;8.17;;;4.97;;
68449;SDS011;67758;39.572;2.652;2023-09-30T12:19:21;8.00;;;5.45;;
68449;SDS011;67758;39.572;2.652;2023-09-30T12:21:47;8.50;;;5.47;;
68449;SDS011;67758;39.572;2.652;2023-09-30T12:24:13;8.10;;;5.03;;
68449;SDS011;67758;39.572;2.652;2023-09-30T12:26:45;8.07;;;5.22;;
68449;SDS011;67758;39.572;2.652;2023-09-30T12:29:20;7.65;;;4.40;;
68449;SDS011;67758;39.572;2.652;2023-09-30T12:31:47;9.48;;;5.50;;
68449;SDS011;67758;39.572;2.652;2023-09-30T12:34:14;8.30;;;5.43;;
68449;SDS011;67758;39.572;2.652;2023-09-30T12:36:40;9.00;;;4.18;;
68449;SDS011;67758;39.572;2.652;2023-09-30T12:39:07;8.55;;;5.78;;
68449;SDS011;67758;39.572;2.652;2023-09-30T12:41:39;7.80;;;3.90;;
68449;SDS011;67758;39.572;2.652;2023-09-30T12:44:05;8.00;;;4.35;;
68449;SDS011;67758;39.572;2.652;2023-09-30T12:46:32;8.67;;;4.47;;
68449;SDS011;67758;39.572;2.652;2023-09-30T12:49:01;5.90;;;3.28;;
68449;SDS011;67758;39.572;2.652;2023-09-30T12:51:27;7.97;;;4.47;;
68449;SDS011;67758;39.572;2.652;2023-09-30T12:53:53;6.88;;;4.55;;
68449;SDS011;67758;39.572;2.652;2023-09-30T12:56:19;7.80;;;4.43;;
68449;SDS011;67758;39.572;2.652;2023-09-30T12:58:44;9.13;;;4.05;;
68449;SDS011;67758;39.572;2.652;2023-09-30T13:01:11;8.17;;;3.90;;
68449;SDS011;67758;39.572;2.652;2023-09-30T13:03:37;8.82;;;4.15;;
68449;SDS011;67758;39.572;2.652;2023-09-30T13:06:03;8.97;;;5.67;;
68449;SDS011;67758;39.572;2.652;2023-09-30T13:08:28;6.80;;;4.45;;
68449;SDS011;67758;39.572;2.652;2023-09-30T13:10:59;9.75;;;3.67;;
68449;SDS011;67758;39.572;2.652;2023-09-30T13:13:28;6.57;;;3.43;;
68449;SDS011;67758;39.572;2.652;2023-09-30T13:15:56;5.55;;;3.33;;
68449;SDS011;67758;39.572;2.652;2023-09-30T13:18:22;6.68;;;3.85;;
68449;SDS011;67758;39.572;2.652;2023-09-30T13:20:48;7.05;;;3.58;;
68449;SDS011;67758;39.572;2.652;2023-09-30T13:23:14;7.72;;;4.00;;
68449;SDS011;67758;39.572;2.652;2023-09-30T13:25:39;7.93;;;3.67;;
68449;SDS011;67758;39.572;2.652;2023-09-30T13:28:05;6.57;;;3.45;;
68449;SDS011;67758;39.572;2.652;2023-09-30T13:30:30;6.13;;;3.17;;
68449;SDS011;67758;39.572;2.652;2023-09-30T13:32:57;7.20;;;3.20;;
68449;SDS011;67758;39.572;2.652;2023-09-30T13:35:23;5.63;;;3.08;;
68449;SDS011;67758;39.572;2.652;2023-09-30T13:37:48;6.10;;;3.30;;
68449;SDS011;67758;39.572;2.652;2023-09-30T13:40:14;6.63;;;3.43;;
68449;SDS011;67758;39.572;2.652;2023-09-30T13:42:39;6.60;;;3.38;;
68449;SDS011;67758;39.572;2.652;2023-09-30T13:45:06;9.20;;;3.63;;
68449;SDS011;67758;39.572;2.652;2023-09-30T13:47:32;7.28;;;3.42;;
68449;SDS011;67758;39.572;2.652;2023-09-30T13:49:58;5.45;;;3.88;;
68449;SDS011;67758;39.572;2.652;2023-09-30T13:52:23;6.33;;;4.30;;
68449;SDS011;67758;39.572;2.652;2023-09-30T13:54:49;5.53;;;3.80;;
68449;SDS011;67758;39.572;2.652;2023-09-30T13:57:14;7.03;;;4.13;;
68449;SDS011;67758;39.572;2.652;2023-09-30T13:59:40;6.40;;;4.23;;
68449;SDS011;67758;39.572;2.652;2023-09-30T14:02:07;6.28;;;3.85;;
68449;SDS011;67758;39.572;2.652;2023-09-30T14:04:33;6.10;;;3.50;;
68449;SDS011;67758;39.572;2.652;2023-09-30T14:07:00;5.53;;;3.33;;
68449;SDS011;67758;39.572;2.652;2023-09-30T14:09:27;5.80;;;3.40;;
68449;SDS011;67758;39.572;2.652;2023-09-30T14:11:54;6.03;;;3.85;;
68449;SDS011;67758;39.572;2.652;2023-09-30T14:14:20;6.60;;;3.63;;
68449;SDS011;67758;39.572;2.652;2023-09-30T14:16:46;5.70;;;3.95;;
68449;SDS011;67758;39.572;2.652;2023-09-30T14:19:12;6.97;;;3.80;;
68449;SDS011;67758;39.572;2.652;2023-09-30T14:21:39;6.87;;;4.03;;
68449;SDS011;67758;39.572;2.652;2023-09-30T14:24:08;7.00;;;3.80;;
68449;SDS011;67758;39.572;2.652;2023-09-30T14:26:33;7.22;;;3.70;;
68449;SDS011;67758;39.572;2.652;2023-09-30T14:28:59;6.22;;;3.63;;
68449;SDS011;67758;39.572;2.652;2023-09-30T14:31:25;7.07;;;3.95;;
68449;SDS011;67758;39.572;2.652;2023-09-30T14:33:52;5.80;;;4.00;;
68449;SDS011;67758;39.572;2.652;2023-09-30T14:36:18;6.80;;;3.63;;
68449;SDS011;67758;39.572;2.652;2023-09-30T14:38:47;7.60;;;4.00;;
68449;SDS011;67758;39.572;2.652;2023-09-30T14:41:14;7.43;;;4.03;;
68449;SDS011;67758;39.572;2.652;2023-09-30T14:43:40;9.48;;;3.25;;
68449;SDS011;67758;39.572;2.652;2023-09-30T14:46:06;5.75;;;3.60;;
68449;SDS011;67758;39.572;2.652;2023-09-30T14:48:33;7.13;;;3.80;;
68449;SDS011;67758;39.572;2.652;2023-09-30T14:50:59;6.65;;;3.90;;
68449;SDS011;67758;39.572;2.652;2023-09-30T14:53:24;8.60;;;4.47;;
68449;SDS011;67758;39.572;2.652;2023-09-30T14:55:50;6.00;;;3.75;;
68449;SDS011;67758;39.572;2.652;2023-09-30T14:58:16;6.97;;;4.20;;
68449;SDS011;67758;39.572;2.652;2023-09-30T15:00:42;7.80;;;4.47;;
68449;SDS011;67758;39.572;2.652;2023-09-30T15:03:08;5.80;;;3.92;;
68449;SDS011;67758;39.572;2.652;2023-09-30T15:05:33;7.73;;;4.70;;
68449;SDS011;67758;39.572;2.652;2023-09-30T15:07:59;7.22;;;4.60;;
68449;SDS011;67758;39.572;2.652;2023-09-30T15:10:28;7.07;;;4.50;;
68449;SDS011;67758;39.572;2.652;2023-09-30T15:12:54;7.85;;;4.82;;
68449;SDS011;67758;39.572;2.652;2023-09-30T15:15:20;6.20;;;4.25;;
68449;SDS011;67758;39.572;2.652;2023-09-30T15:17:46;7.57;;;4.20;;